Time;durP1;ratioP1;P1;durP2;ratioP2;P2;SDS_P1;SDS_P2;PMS_P1;PMS_P2;Temp;Humidity;BMP_temperature;BMP_pressure;BME280_temperature;BME280_humidity;BME280_pressure;Samples;Min_cycle;Max_cycle;Signal;HPM_P1;HPM_P2
2020/12/26 00:04:03;;;;;;;23.40;8.15;;;;;;;1.28;67.02;97810.13;10500442;28;20063;-51
2020/12/26 00:09:05;;;;;;;17.55;6.85;;;;;;;1.30;66.74;97818.59;10457247;28;20563;-52
2020/12/26 00:14:07;;;;;;;25.23;8.65;;;;;;;1.32;66.94;97818.47;10482054;28;20052;-48
2020/12/26 00:19:14;;;;;;;26.27;10.93;;;;;;;1.37;66.82;97813.75;10499946;28;20049;-51
2020/12/26 00:24:16;;;;;;;27.33;9.95;;;;;;;1.38;66.83;97813.63;10498542;28;20037;-49
2020/12/26 00:29:18;;;;;;;21.05;8.20;;;;;;;1.46;67.04;97809.63;10499785;28;20072;-48
2020/12/26 00:34:21;;;;;;;22.20;8.77;;;;;;;1.51;66.79;97808.34;10498131;28;20051;-50
2020/12/26 00:39:23;;;;;;;28.77;11.27;;;;;;;1.58;66.68;97809.50;10498794;28;20377;-52
2020/12/26 00:44:25;;;;;;;24.17;8.98;;;;;;;1.67;66.66;97802.78;10498611;28;20401;-48
2020/12/26 00:49:27;;;;;;;24.15;10.98;;;;;;;1.71;66.63;97803.34;10464533;28;20053;-48
2020/12/26 00:54:29;;;;;;;23.10;8.77;;;;;;;1.78;66.44;97800.13;10457323;28;20073;-50
2020/12/26 00:59:31;;;;;;;22.17;10.15;;;;;;;1.81;66.37;97794.72;10468199;28;20751;-50
2020/12/26 01:04:34;;;;;;;19.70;7.75;;;;;;;1.82;66.13;97795.56;10455558;28;20477;-52
2020/12/26 01:09:35;;;;;;;19.50;9.30;;;;;;;1.82;66.60;97790.38;10459622;28;20079;-48
2020/12/26 01:14:37;;;;;;;21.27;9.82;;;;;;;1.89;66.43;97780.34;10484927;28;20539;-50
2020/12/26 01:19:40;;;;;;;23.30;10.73;;;;;;;1.93;66.42;97776.53;10496620;28;20443;-50
2020/12/26 01:24:42;;;;;;;25.08;9.07;;;;;;;1.97;66.20;97780.53;10496691;28;20052;-50
2020/12/26 01:29:43;;;;;;;23.00;8.98;;;;;;;1.93;66.71;97776.53;10496802;28;20060;-51
2020/12/26 01:34:46;;;;;;;19.13;7.20;;;;;;;1.86;66.57;97767.63;10496621;28;20048;-51
2020/12/26 01:39:48;;;;;;;23.88;8.77;;;;;;;1.86;66.55;97778.00;10497672;28;20067;-51
2020/12/26 01:44:49;;;;;;;16.08;8.15;;;;;;;1.89;66.66;97775.16;10496614;28;20048;-49
2020/12/26 01:49:52;;;;;;;17.27;7.47;;;;;;;1.88;66.69;97771.75;10497299;28;20055;-50
2020/12/26 01:54:54;;;;;;;19.52;7.03;;;;;;;1.88;66.87;97768.31;10496931;28;20098;-50
2020/12/26 01:59:56;;;;;;;21.60;9.95;;;;;;;1.89;66.69;97769.97;10494729;28;20064;-51
2020/12/26 02:05:00;;;;;;;19.63;7.25;;;;;;;1.88;66.77;97770.91;10460863;28;20045;-50
2020/12/26 02:10:02;;;;;;;17.75;8.07;;;;;;;1.83;66.99;97761.75;10463970;28;20394;-49
2020/12/26 02:15:03;;;;;;;17.17;6.85;;;;;;;1.86;66.92;97765.03;10494214;28;20467;-48
2020/12/26 02:20:06;;;;;;;19.48;8.85;;;;;;;1.91;66.93;97762.88;10504565;28;20053;-49
2020/12/26 02:25:09;;;;;;;20.80;8.30;;;;;;;1.89;67.09;97757.84;10505860;28;20048;-49
2020/12/26 02:30:10;;;;;;;21.95;7.60;;;;;;;1.89;67.13;97749.25;10504710;28;20056;-49
2020/12/26 02:35:12;;;;;;;22.90;9.20;;;;;;;1.86;67.04;97758.09;10503911;28;20044;-51
2020/12/26 02:40:14;;;;;;;26.73;9.10;;;;;;;1.85;67.71;97753.84;10503759;28;20052;-49
2020/12/26 02:45:16;;;;;;;21.48;8.25;;;;;;;1.88;67.13;97757.94;10503003;28;20040;-49
2020/12/26 02:50:18;;;;;;;21.05;7.60;;;;;;;1.86;67.69;97754.69;10503187;28;20168;-52
2020/12/26 02:55:20;;;;;;;19.15;8.50;;;;;;;1.84;67.82;97763.38;10502786;28;20048;-48
2020/12/26 03:00:22;;;;;;;23.23;9.25;;;;;;;1.83;67.86;97753.16;10502993;28;20106;-51
2020/12/26 03:05:23;;;;;;;23.08;8.07;;;;;;;1.87;67.61;97756.31;10503409;28;20074;-49
2020/12/26 03:10:26;;;;;;;24.52;7.80;;;;;;;1.91;67.73;97753.34;10502212;28;20104;-50
2020/12/26 03:15:28;;;;;;;20.73;8.57;;;;;;;1.97;67.55;97752.03;10503428;28;20094;-51
2020/12/26 03:20:29;;;;;;;28.75;11.40;;;;;;;2.00;68.06;97756.94;10502450;28;20071;-51
2020/12/26 03:25:33;;;;;;;26.95;10.38;;;;;;;2.03;68.13;97756.69;10501412;28;20049;-48
2020/12/26 03:30:34;;;;;;;23.27;10.45;;;;;;;2.11;68.09;97756.91;10501176;28;20053;-50
2020/12/26 03:35:36;;;;;;;34.85;10.95;;;;;;;2.15;67.92;97749.69;10501135;28;20040;-51
2020/12/26 03:40:38;;;;;;;12.02;5.28;;;;;;;2.18;67.99;97749.44;10501586;28;20431;-49
2020/12/26 03:45:40;;;;;;;19.88;8.40;;;;;;;2.22;67.77;97750.88;10500611;28;20435;-51
2020/12/26 03:50:42;;;;;;;24.25;10.15;;;;;;;2.29;68.46;97747.63;10500975;28;20052;-51
2020/12/26 03:55:44;;;;;;;26.73;11.13;;;;;;;2.30;68.33;97751.03;10501079;28;20036;-50
2020/12/26 04:00:46;;;;;;;24.52;9.65;;;;;;;2.33;68.15;97750.78;10500395;28;20080;-51
2020/12/26 04:05:47;;;;;;;21.83;10.25;;;;;;;2.40;68.10;97758.88;10501158;28;20055;-50
2020/12/26 04:10:50;;;;;;;30.55;10.82;;;;;;;2.44;68.51;97760.28;10499855;28;20060;-50
2020/12/26 04:15:51;;;;;;;27.27;10.93;;;;;;;2.42;68.51;97762.16;10498411;28;20051;-50
2020/12/26 04:20:53;;;;;;;32.08;12.15;;;;;;;2.49;68.23;97755.50;10499417;28;20055;-51
2020/12/26 04:25:55;;;;;;;31.80;11.00;;;;;;;2.53;68.44;97759.53;10497700;28;20135;-49
2020/12/26 04:30:58;;;;;;;;;;;;;;;2.57;68.59;97768.69;10498930;28;20520;-51
2020/12/26 04:36:00;;;;;;;23.88;9.45;;;;;;;2.60;68.53;97762.41;10498890;28;19924;-52
2020/12/26 04:41:04;;;;;;;31.40;13.65;;;;;;;2.59;68.80;97758.19;10499334;28;20139;-53
2020/12/26 04:46:14;;;;;;;30.80;12.13;;;;;;;2.61;68.78;97767.47;10498421;28;20169;-51
2020/12/26 04:51:18;;;;;;;30.88;10.40;;;;;;;2.65;68.88;97763.69;10498702;28;20053;-51
2020/12/26 04:56:21;;;;;;;30.17;12.90;;;;;;;2.71;68.70;97767.50;10498024;28;20052;-53
2020/12/26 05:01:25;;;;;;;23.87;9.33;;;;;;;2.74;69.13;97768.09;10499198;28;20443;-52
2020/12/26 05:06:30;;;;;;;24.83;10.35;;;;;;;2.74;68.95;97773.28;10499768;28;20290;-52
2020/12/26 05:11:33;;;;;;;30.25;10.95;;;;;;;2.73;68.94;97783.78;10498784;28;20481;-55
2020/12/26 05:16:35;;;;;;;24.23;9.70;;;;;;;2.79;69.19;97790.22;10500115;28;20070;-52
2020/12/26 05:21:37;;;;;;;29.40;11.25;;;;;;;2.80;69.08;97802.25;10501218;28;20051;-59
2020/12/26 05:26:42;;;;;;;19.80;8.75;;;;;;;2.82;68.89;97805.56;10499531;28;20495;-52
2020/12/26 05:31:45;;;;;;;20.15;9.05;;;;;;;2.78;68.84;97809.34;10497629;28;20048;-52
2020/12/26 05:36:47;;;;;;;25.95;9.68;;;;;;;2.81;69.05;97824.66;10487948;28;20041;-52
2020/12/26 05:41:50;;;;;;;23.08;9.40;;;;;;;2.78;69.34;97830.94;10461980;28;20082;-52
2020/12/26 05:46:56;;;;;;;21.73;8.20;;;;;;;2.71;69.85;97825.44;10468972;28;20170;-54
2020/12/26 05:52:04;;;;;;;14.50;6.70;;;;;;;2.68;69.54;97828.28;10456762;28;20053;-51
2020/12/26 05:57:09;;;;;;;17.10;7.18;;;;;;;2.72;69.76;97832.25;10475346;28;20044;-53
2020/12/26 06:02:18;;;;;;;15.27;6.53;;;;;;;2.79;69.19;97836.94;10496658;28;20064;-51
2020/12/26 06:07:24;;;;;;;14.27;6.03;;;;;;;2.82;69.55;97844.47;10497727;28;20048;-59
2020/12/26 06:12:28;;;;;;;16.45;6.15;;;;;;;2.89;69.62;97854.19;10499728;28;20508;-51
2020/12/26 06:17:31;;;;;;;11.40;5.53;;;;;;;2.96;69.63;97854.53;10496662;28;20118;-54
2020/12/26 06:22:44;;;;;;;14.30;4.70;;;;;;;2.99;69.74;97869.84;10496104;28;20554;-53
2020/12/26 06:27:58;;;;;;;11.18;3.67;;;;;;;3.04;69.67;97874.66;10495951;28;20040;-53
2020/12/26 06:33:00;;;;;;;11.23;5.22;;;;;;;3.01;69.52;97878.31;10495959;28;20442;-53
2020/12/26 06:38:12;;;;;;;9.27;3.83;;;;;;;2.99;69.16;97882.84;10496760;28;20052;-51
2020/12/26 06:43:44;;;;;;;8.38;3.30;;;;;;;2.98;69.47;97899.34;10495899;28;20393;-58
2020/12/26 06:48:46;;;;;;;6.80;3.10;;;;;;;3.01;69.23;97904.28;10496784;28;20056;-51
2020/12/26 06:53:48;;;;;;;13.13;4.13;;;;;;;3.05;69.49;97916.06;10506042;28;20053;-54
2020/12/26 06:58:53;;;;;;;8.13;3.13;;;;;;;3.05;68.92;97915.22;10502660;28;20069;-51
2020/12/26 07:04:18;;;;;;;5.95;2.88;;;;;;;3.06;69.48;97907.31;10502841;28;20044;-54
2020/12/26 07:09:41;;;;;;;7.28;3.50;;;;;;;3.13;69.26;97911.03;10502878;28;20621;-53
2020/12/26 07:14:45;;;;;;;9.70;3.60;;;;;;;3.18;69.46;97911.50;10479081;28;20055;-51
2020/12/26 07:19:47;;;;;;;8.40;2.70;;;;;;;3.18;68.96;97911.50;10463029;28;20417;-51
2020/12/26 07:24:50;;;;;;;8.75;2.85;;;;;;;3.12;69.29;97912.00;10467088;28;20056;-50
2020/12/26 07:30:06;;;;;;;7.60;3.30;;;;;;;3.16;69.82;97920.34;10457846;28;20057;-51
2020/12/26 07:35:14;;;;;;;7.40;3.30;;;;;;;3.17;69.53;97922.00;10461662;28;20433;-51
2020/12/26 07:40:17;;;;;;;9.40;3.28;;;;;;;3.23;69.03;97927.53;10460641;28;20540;-52
2020/12/26 07:45:21;;;;;;;10.73;4.03;;;;;;;3.30;69.50;97935.63;10460515;28;20110;-57
2020/12/26 07:50:25;;;;;;;8.55;2.75;;;;;;;3.31;69.52;97939.03;10463795;28;20049;-53
2020/12/26 07:55:27;;;;;;;7.80;2.88;;;;;;;3.31;69.65;97950.25;10462097;28;20063;-52
2020/12/26 08:00:31;;;;;;;12.98;3.17;;;;;;;3.37;69.76;97946.31;10459989;28;20056;-51
2020/12/26 08:05:33;;;;;;;9.13;3.88;;;;;;;3.39;71.01;97939.22;10460869;28;20049;-54
2020/12/26 08:10:35;;;;;;;9.70;3.30;;;;;;;3.44;71.69;97943.06;10460606;28;20048;-52
2020/12/26 08:15:38;;;;;;;8.38;3.15;;;;;;;3.61;71.81;97941.66;10461870;28;20088;-52
2020/12/26 08:20:39;;;;;;;9.05;3.30;;;;;;;3.67;71.96;97943.72;10461645;28;20049;-56
2020/12/26 08:25:41;;;;;;;8.82;3.70;;;;;;;3.69;71.74;97941.00;10459884;28;20394;-52
2020/12/26 08:30:48;;;;;;;9.30;4.00;;;;;;;3.78;72.28;97936.78;10459939;28;20147;-52
2020/12/26 08:35:55;;;;;;;8.23;2.70;;;;;;;3.90;71.67;97946.13;10460062;28;20477;-54
2020/12/26 08:41:00;;;;;;;9.32;3.33;;;;;;;3.83;72.05;97942.44;10461112;28;20083;-51
2020/12/26 08:46:12;;;;;;;8.88;2.90;;;;;;;3.88;72.00;97943.69;10460282;28;20060;-55
2020/12/26 08:51:19;;;;;;;10.65;3.28;;;;;;;4.06;71.54;97938.66;10460336;28;20143;-54
2020/12/26 08:56:34;;;;;;;8.40;3.42;;;;;;;3.94;71.75;97947.50;10458844;28;20102;-52
2020/12/26 09:01:37;;;;;;;10.23;3.15;;;;;;;4.06;71.44;97937.84;10458774;28;20072;-54
2020/12/26 09:06:40;;;;;;;9.40;3.90;;;;;;;4.05;71.42;97957.00;10459354;28;20052;-55
2020/12/26 09:11:42;;;;;;;6.25;3.15;;;;;;;4.01;71.34;97946.03;10458932;28;20060;-53
2020/12/26 09:16:45;;;;;;;7.07;2.80;;;;;;;4.04;71.82;97957.97;10458717;28;20052;-52
2020/12/26 09:21:47;;;;;;;18.70;3.58;;;;;;;4.04;71.30;97956.19;10458175;28;20106;-54
2020/12/26 09:26:49;;;;;;;11.00;3.50;;;;;;;4.04;71.29;97961.38;10458524;28;20394;-54
2020/12/26 09:31:52;;;;;;;10.18;3.45;;;;;;;4.08;71.42;97975.75;10456947;28;20049;-54
2020/12/26 09:37:04;;;;;;;8.82;2.92;;;;;;;4.03;71.55;97982.31;10458624;28;20049;-54
2020/12/26 09:42:06;;;;;;;10.23;3.00;;;;;;;4.07;70.90;97975.91;10457827;28;20174;-54
2020/12/26 09:47:08;;;;;;;7.97;3.47;;;;;;;4.17;71.22;97966.34;10457962;28;20102;-54
2020/12/26 09:52:10;;;;;;;8.98;3.47;;;;;;;4.20;70.66;97960.06;10457744;28;20056;-53
2020/12/26 09:57:11;;;;;;;7.90;3.88;;;;;;;4.09;71.25;97959.19;10458576;28;20041;-53
2020/12/26 10:02:14;;;;;;;8.15;3.53;;;;;;;4.09;71.08;97961.78;10456994;28;20508;-54
2020/12/26 10:07:19;;;;;;;11.50;3.80;;;;;;;4.08;71.72;97962.75;10457264;28;20398;-52
2020/12/26 10:12:20;;;;;;;7.55;3.22;;;;;;;4.22;71.69;97963.31;10458506;28;20474;-52
2020/12/26 10:17:23;;;;;;;8.55;3.58;;;;;;;4.22;70.80;97968.53;10457774;28;20045;-52
2020/12/26 10:22:24;;;;;;;6.72;3.17;;;;;;;4.18;71.04;97967.16;10460385;28;20049;-54
2020/12/26 10:27:26;;;;;;;9.23;3.80;;;;;;;4.09;70.99;97979.19;10465211;28;20354;-54
2020/12/26 10:32:28;;;;;;;6.13;2.97;;;;;;;4.20;71.13;97970.47;10466837;28;20076;-54
2020/12/26 10:37:30;;;;;;;8.82;3.45;;;;;;;4.35;71.29;97976.94;10465709;28;20049;-52
2020/12/26 10:42:32;;;;;;;7.15;3.45;;;;;;;4.36;70.82;97982.00;10464176;28;20049;-52
2020/12/26 10:47:34;;;;;;;10.45;3.28;;;;;;;4.27;70.83;97977.59;10463828;28;20045;-54
2020/12/26 10:52:36;;;;;;;10.93;3.65;;;;;;;4.26;71.64;97980.34;10464298;28;20060;-51
2020/12/26 10:57:37;;;;;;;6.65;2.95;;;;;;;4.26;71.55;97985.53;10462681;28;20417;-51
2020/12/26 11:02:40;;;;;;;8.43;3.15;;;;;;;4.19;71.77;97985.25;10463245;28;20456;-51
2020/12/26 11:07:42;;;;;;;7.45;3.53;;;;;;;4.18;71.37;97985.38;10463345;28;20045;-53
2020/12/26 11:12:43;;;;;;;7.82;3.33;;;;;;;4.07;71.42;97981.91;10464575;28;20140;-51
2020/12/26 11:17:47;;;;;;;9.65;3.75;;;;;;;4.04;71.46;97987.38;10462831;28;20076;-51
2020/12/26 11:22:48;;;;;;;9.18;3.75;;;;;;;4.20;71.02;97983.47;10462493;28;20053;-51
2020/12/26 11:27:50;;;;;;;6.25;3.03;;;;;;;4.25;70.67;97989.06;10462232;28;20060;-54
2020/12/26 11:32:52;;;;;;;8.95;3.05;;;;;;;4.08;71.17;97987.94;10461967;28;20520;-51
2020/12/26 11:37:54;;;;;;;9.70;3.28;;;;;;;4.05;70.65;98002.03;10462257;28;20049;-54
2020/12/26 11:42:56;;;;;;;8.05;3.22;;;;;;;3.96;71.01;98000.22;10463459;28;20055;-51
2020/12/26 11:47:58;;;;;;;11.75;4.30;;;;;;;3.89;71.24;98007.72;10462713;28;20041;-54
2020/12/26 11:53:00;;;;;;;8.30;3.03;;;;;;;3.88;70.67;97992.25;10460541;28;20106;-54
2020/12/26 11:58:01;;;;;;;8.77;3.10;;;;;;;3.78;71.51;97996.56;10462636;28;20053;-51
2020/12/26 12:03:04;;;;;;;8.80;3.33;;;;;;;3.51;71.53;97995.34;10461755;28;20060;-51
2020/12/26 12:08:06;;;;;;;10.85;3.63;;;;;;;3.52;71.87;97991.78;10461422;28;20053;-51
2020/12/26 12:13:07;;;;;;;8.30;3.40;;;;;;;3.66;71.74;97988.88;10460605;28;20084;-51
2020/12/26 12:18:10;;;;;;;8.20;2.90;;;;;;;3.59;71.72;97989.50;10460865;28;20044;-51
2020/12/26 12:23:12;;;;;;;9.20;4.07;;;;;;;3.60;71.75;97989.38;10462095;28;20385;-62
2020/12/26 12:28:14;;;;;;;9.15;3.20;;;;;;;3.54;71.29;97997.69;10462990;28;20059;-54
2020/12/26 12:33:16;;;;;;;7.38;3.38;;;;;;;3.49;71.01;97991.22;10461141;28;20048;-53
2020/12/26 12:38:18;;;;;;;7.38;3.50;;;;;;;3.51;70.58;98015.28;10460913;28;20470;-54
2020/12/26 12:43:19;;;;;;;7.82;3.45;;;;;;;3.55;71.15;98014.91;10459513;28;20045;-51
2020/12/26 12:48:22;;;;;;;7.20;2.97;;;;;;;3.76;70.45;98009.72;10458676;28;20045;-52
2020/12/26 12:53:23;;;;;;;8.02;3.10;;;;;;;3.86;69.95;98004.56;10459436;28;20045;-54
2020/12/26 12:58:25;;;;;;;5.50;2.80;;;;;;;3.77;70.49;98010.53;10458295;28;20485;-52
2020/12/26 13:03:28;;;;;;;6.15;2.88;;;;;;;3.77;69.89;98016.53;10460692;28;20068;-52
2020/12/26 13:08:29;;;;;;;6.80;2.70;;;;;;;3.74;70.69;98016.78;10459052;28;20110;-51
2020/12/26 13:13:31;;;;;;;6.60;3.50;;;;;;;3.67;70.16;98020.88;10458636;28;20053;-54
2020/12/26 13:18:33;;;;;;;8.80;3.47;;;;;;;3.60;70.14;98015.38;10458584;28;20130;-53
2020/12/26 13:23:35;;;;;;;8.82;4.28;;;;;;;3.55;70.66;98022.72;10458426;28;20083;-54
2020/12/26 13:28:37;;;;;;;10.10;3.70;;;;;;;3.52;70.80;98028.16;10458951;28;20052;-52
2020/12/26 13:33:40;;;;;;;7.90;3.03;;;;;;;3.59;70.79;98031.06;10459684;28;20064;-54
2020/12/26 13:38:42;;;;;;;6.63;2.10;;;;;;;3.59;69.83;98028.47;10459766;28;20052;-51
2020/12/26 13:43:44;;;;;;;7.13;2.88;;;;;;;3.55;69.53;98024.50;10458774;28;20049;-54
2020/12/26 13:48:47;;;;;;;6.32;2.38;;;;;;;3.38;69.44;98025.88;10457556;28;20048;-54
2020/12/26 13:53:48;;;;;;;6.13;2.90;;;;;;;3.25;69.04;98017.47;10458233;28;20083;-52
2020/12/26 13:58:50;;;;;;;5.43;1.58;;;;;;;3.06;68.82;98047.50;10457642;28;20056;-52
2020/12/26 14:03:53;;;;;;;3.85;1.52;;;;;;;3.02;69.42;98060.84;10464721;28;20535;-51
2020/12/26 14:08:55;;;;;;;3.90;1.37;;;;;;;2.99;69.25;98064.53;10464579;28;20623;-56
2020/12/26 14:13:56;;;;;;;4.00;1.40;;;;;;;2.97;69.64;98069.03;10466013;28;20049;-51
2020/12/26 14:18:59;;;;;;;4.78;2.00;;;;;;;3.01;69.50;98078.19;10465893;28;20053;-51
2020/12/26 14:24:01;;;;;;;5.07;2.08;;;;;;;3.02;69.49;98069.47;10464941;28;20056;-53
2020/12/26 14:29:02;;;;;;;5.55;2.30;;;;;;;2.89;70.45;98071.38;10464655;28;20055;-54
2020/12/26 14:34:05;;;;;;;5.70;1.90;;;;;;;2.89;70.25;98076.59;10464953;28;20052;-51
2020/12/26 14:39:07;;;;;;;5.35;2.10;;;;;;;2.67;70.18;98073.09;10465352;28;20052;-51
2020/12/26 14:44:08;;;;;;;5.32;2.20;;;;;;;2.64;69.45;98068.16;10464434;28;20079;-54
2020/12/26 14:49:11;;;;;;;5.95;2.25;;;;;;;2.53;69.62;98079.38;10465195;28;20049;-55
2020/12/26 14:54:12;;;;;;;4.85;2.08;;;;;;;2.45;69.76;98080.91;10464288;28;20053;-53
2020/12/26 14:59:14;;;;;;;5.35;2.25;;;;;;;2.42;69.94;98089.75;10465906;28;20061;-54
2020/12/26 15:04:17;;;;;;;6.20;2.35;;;;;;;2.37;70.18;98086.72;10464119;28;20402;-51
2020/12/26 15:09:18;;;;;;;5.13;2.10;;;;;;;2.30;70.16;98099.28;10463084;28;20045;-54
2020/12/26 15:14:20;;;;;;;5.65;2.40;;;;;;;2.28;69.60;98093.44;10463247;28;20060;-51
2020/12/26 15:19:22;;;;;;;5.20;2.15;;;;;;;2.26;70.19;98095.31;10463060;28;20063;-51
2020/12/26 15:24:24;;;;;;;4.38;1.92;;;;;;;2.19;70.01;98083.75;10462199;28;20052;-54
2020/12/26 15:29:26;;;;;;;4.70;2.22;;;;;;;2.16;69.84;98089.19;10462836;28;20485;-54
2020/12/26 15:34:28;;;;;;;8.70;2.40;;;;;;;2.22;69.92;98088.72;10462740;28;20059;-54
2020/12/26 15:39:30;;;;;;;5.20;1.55;;;;;;;2.18;69.92;98081.28;10462422;28;20110;-59
2020/12/26 15:44:31;;;;;;;5.75;2.00;;;;;;;2.14;70.25;98083.28;10462751;28;20108;-55
2020/12/26 15:49:34;;;;;;;5.07;1.95;;;;;;;2.22;70.65;98075.75;10461451;28;20056;-53
2020/12/26 15:54:36;;;;;;;4.72;2.05;;;;;;;2.22;70.35;98069.75;10461611;28;20041;-54
2020/12/26 15:59:37;;;;;;;6.63;3.30;;;;;;;2.20;70.54;98069.03;10462069;28;20052;-53
2020/12/26 16:04:41;;;;;;;5.57;2.05;;;;;;;2.25;70.05;98065.13;10462040;28;20136;-51
2020/12/26 16:09:43;;;;;;;5.53;1.92;;;;;;;2.26;70.19;98064.19;10460914;28;20183;-53
2020/12/26 16:14:45;;;;;;;6.75;3.13;;;;;;;2.33;69.92;98066.31;10461697;28;20422;-51
2020/12/26 16:19:47;;;;;;;5.35;2.20;;;;;;;2.31;70.19;98069.03;10459617;28;20048;-50
2020/12/26 16:24:49;;;;;;;7.30;2.35;;;;;;;2.44;69.49;98068.91;10461723;28;20072;-53
2020/12/26 16:29:50;;;;;;;6.25;2.58;;;;;;;2.44;70.03;98074.09;10460218;28;20384;-53
2020/12/26 16:34:53;;;;;;;7.65;2.63;;;;;;;2.37;69.70;98078.06;10460794;28;20076;-54
2020/12/26 16:39:55;;;;;;;5.22;2.10;;;;;;;2.41;70.28;98066.53;10462443;28;20393;-50
2020/12/26 16:44:56;;;;;;;5.97;2.05;;;;;;;2.47;70.14;98081.63;10461183;28;20579;-51
2020/12/26 16:49:59;;;;;;;5.88;2.47;;;;;;;2.40;69.90;98076.09;10462638;28;20049;-53
2020/12/26 16:55:00;;;;;;;7.22;3.35;;;;;;;2.41;70.07;98071.72;10460994;28;20060;-53
2020/12/26 17:00:07;;;;;;;5.30;2.47;;;;;;;2.37;69.67;98070.31;10460110;28;20118;-53
2020/12/26 17:05:10;;;;;;;9.60;2.67;;;;;;;2.29;70.14;98068.31;10459269;28;20053;-50
2020/12/26 17:10:12;;;;;;;6.72;2.42;;;;;;;2.26;69.69;98059.00;10459492;28;20040;-52
2020/12/26 17:15:14;;;;;;;5.68;1.85;;;;;;;2.21;69.77;98065.47;10460083;28;20051;-50
2020/12/26 17:20:16;;;;;;;5.72;2.15;;;;;;;2.20;70.39;98062.06;10459495;28;20048;-51
2020/12/26 17:25:18;;;;;;;5.70;2.35;;;;;;;2.17;69.82;98054.53;10460008;28;20040;-51
2020/12/26 17:30:19;;;;;;;4.95;2.05;;;;;;;2.21;70.14;98049.94;10458612;28;20045;-50
2020/12/26 17:35:22;;;;;;;7.35;3.00;;;;;;;2.12;69.96;98045.44;10457652;28;20474;-52
2020/12/26 17:40:24;;;;;;;5.45;2.22;;;;;;;2.05;69.82;98058.06;10459438;28;20049;-52
2020/12/26 17:45:25;;;;;;;4.88;2.22;;;;;;;2.06;70.35;98046.75;10459186;28;20053;-53
2020/12/26 17:50:28;;;;;;;4.68;2.20;;;;;;;2.13;69.67;98036.75;10458007;28;20393;-52
2020/12/26 17:55:29;;;;;;;5.97;2.20;;;;;;;2.15;69.80;98043.44;10457681;28;20547;-49
2020/12/26 18:00:31;;;;;;;5.35;2.33;;;;;;;2.12;70.08;98037.69;10457830;28;20065;-52
2020/12/26 18:05:33;;;;;;;7.32;2.42;;;;;;;2.10;69.82;98045.59;10457805;28;20114;-52
2020/12/26 18:10:35;;;;;;;4.95;2.35;;;;;;;2.08;70.36;98050.06;10458620;28;20063;-50
2020/12/26 18:15:37;;;;;;;6.03;2.38;;;;;;;2.08;69.84;98044.88;10459496;28;20049;-53
2020/12/26 18:20:39;;;;;;;7.03;2.30;;;;;;;2.12;69.95;98043.69;10458363;28;20053;-53
2020/12/26 18:25:41;;;;;;;5.77;2.10;;;;;;;1.92;69.20;98052.16;10458530;28;20049;-52
2020/12/26 18:30:43;;;;;;;10.70;3.72;;;;;;;1.81;69.77;98053.78;10457077;28;20117;-53
2020/12/26 18:35:45;;;;;;;6.15;2.85;;;;;;;1.80;70.07;98059.94;10456892;28;20053;-49
2020/12/26 18:40:47;;;;;;;5.22;1.95;;;;;;;1.80;69.91;98057.34;10457672;28;20049;-50
2020/12/26 18:45:49;;;;;;;5.30;2.30;;;;;;;1.80;70.22;98059.09;10458492;28;20517;-50
2020/12/26 18:50:52;;;;;;;5.32;2.05;;;;;;;1.87;70.19;98051.69;10464180;28;20354;-52
2020/12/26 18:55:53;;;;;;;5.53;2.50;;;;;;;1.87;70.22;98046.50;10463296;28;20052;-49
2020/12/26 19:00:55;;;;;;;5.38;1.90;;;;;;;1.72;69.33;98051.91;10463781;28;20061;-49
2020/12/26 19:05:57;;;;;;;5.13;2.15;;;;;;;1.62;69.59;98056.13;10463539;28;20107;-49
2020/12/26 19:10:59;;;;;;;4.90;2.00;;;;;;;1.48;69.24;98051.13;10465782;28;20088;-57
2020/12/26 19:16:00;;;;;;;5.40;1.92;;;;;;;1.45;69.75;98053.94;10463959;28;20055;-53
2020/12/26 19:21:12;;;;;;;5.32;2.00;;;;;;;1.46;70.03;98050.44;10463008;28;20163;-52
2020/12/26 19:26:19;;;;;;;4.90;2.08;;;;;;;1.46;69.85;98063.41;10463160;28;20049;-52
2020/12/26 19:31:21;;;;;;;5.95;1.90;;;;;;;1.40;69.67;98053.50;10463904;28;20106;-50
2020/12/26 19:36:24;;;;;;;4.35;1.90;;;;;;;1.38;70.09;98056.19;10462153;28;20128;-50
2020/12/26 19:41:26;;;;;;;6.22;1.92;;;;;;;1.36;70.23;98053.72;10464152;28;20045;-50
2020/12/26 19:46:28;;;;;;;5.15;2.20;;;;;;;1.36;70.08;98051.13;10463607;28;20049;-52
2020/12/26 19:51:30;;;;;;;4.18;1.63;;;;;;;1.44;70.42;98045.38;10462521;28;20102;-50
2020/12/26 19:56:32;;;;;;;6.32;2.08;;;;;;;1.42;70.34;98047.25;10462346;28;20099;-51
2020/12/26 20:01:34;;;;;;;6.03;2.30;;;;;;;1.50;70.92;98060.44;10461091;28;20409;-52
2020/12/26 20:06:36;;;;;;;4.55;1.80;;;;;;;1.55;70.88;98063.53;10461987;28;20048;-52
2020/12/26 20:11:38;;;;;;;5.63;1.90;;;;;;;1.44;71.25;98068.66;10462556;28;20044;-49
2020/12/26 20:16:40;;;;;;;4.65;2.05;;;;;;;1.37;71.43;98060.53;10463274;28;20044;-57
2020/12/26 20:21:42;;;;;;;4.70;2.00;;;;;;;1.40;71.70;98054.31;10463139;28;20057;-50
2020/12/26 20:26:44;;;;;;;7.20;2.35;;;;;;;1.48;71.67;98056.31;10460735;28;20051;-52
2020/12/26 20:31:46;;;;;;;5.78;1.92;;;;;;;1.52;71.21;98062.94;10460311;28;20424;-52
2020/12/26 20:36:48;;;;;;;6.40;2.50;;;;;;;1.58;71.30;98073.66;10460174;28;20052;-48
2020/12/26 20:41:50;;;;;;;5.75;2.75;;;;;;;1.61;71.47;98077.78;10459608;28;20174;-52
2020/12/26 20:46:52;;;;;;;4.50;1.75;;;;;;;1.60;71.08;98082.16;10459456;28;20049;-52
2020/12/26 20:51:55;;;;;;;7.30;3.20;;;;;;;1.60;71.46;98079.56;10460119;28;20048;-52
2020/12/26 20:56:57;;;;;;;4.30;1.73;;;;;;;1.58;71.32;98083.19;10459606;28;20045;-50
2020/12/26 21:01:59;;;;;;;5.13;2.03;;;;;;;1.51;71.56;98074.22;10459483;28;20056;-53
2020/12/26 21:07:01;;;;;;;4.72;1.52;;;;;;;1.44;72.02;98070.44;10460537;28;20369;-52
2020/12/26 21:12:04;;;;;;;6.05;3.22;;;;;;;1.44;72.09;98065.25;10458761;28;20053;-52
2020/12/26 21:17:05;;;;;;;5.30;1.80;;;;;;;1.51;71.67;98069.88;10458779;28;20041;-52
2020/12/26 21:22:08;;;;;;;8.15;3.78;;;;;;;1.45;72.16;98069.50;10460509;28;20049;-50
2020/12/26 21:27:09;;;;;;;5.18;2.40;;;;;;;1.46;71.67;98074.56;10459317;28;20080;-52
2020/12/26 21:32:11;;;;;;;10.02;5.35;;;;;;;1.45;72.03;98072.06;10457922;28;20048;-52
2020/12/26 21:37:13;;;;;;;4.85;2.25;;;;;;;1.50;71.76;98075.16;10457628;28;20052;-50
2020/12/26 21:42:15;;;;;;;11.30;4.45;;;;;;;1.63;71.72;98077.66;10458142;28;20585;-50
2020/12/26 21:47:17;;;;;;;5.45;2.00;;;;;;;1.64;71.99;98080.16;10459103;28;20104;-52
2020/12/26 21:52:19;;;;;;;5.18;2.20;;;;;;;1.68;71.92;98071.22;10458048;28;20060;-49
2020/12/26 21:57:21;;;;;;;5.38;1.70;;;;;;;1.71;72.08;98094.28;10457411;28;20060;-50
2020/12/26 22:02:22;;;;;;;9.63;4.53;;;;;;;1.96;71.40;98108.00;10458248;28;20063;-52
2020/12/26 22:07:26;;;;;;;7.90;2.25;;;;;;;2.06;70.75;98119.31;10459983;28;20547;-50
2020/12/26 22:12:28;;;;;;;8.98;2.28;;;;;;;2.12;71.06;98124.03;10460148;28;20069;-52
2020/12/26 22:17:29;;;;;;;4.75;2.15;;;;;;;2.11;70.31;98132.75;10457359;28;20112;-52
2020/12/26 22:22:32;;;;;;;5.57;2.33;;;;;;;2.07;69.82;98136.53;10462029;28;20103;-50
2020/12/26 22:27:34;;;;;;;6.60;3.03;;;;;;;2.02;69.97;98136.88;10467177;28;20103;-52
2020/12/26 22:32:35;;;;;;;6.82;3.13;;;;;;;2.03;70.13;98145.47;10465964;28;20060;-52
2020/12/26 22:37:38;;;;;;;6.03;2.70;;;;;;;1.95;69.70;98138.28;10465491;28;20059;-49
2020/12/26 22:42:40;;;;;;;5.20;2.80;;;;;;;1.93;69.36;98144.50;10465309;28;20065;-50
2020/12/26 22:47:41;;;;;;;5.47;2.30;;;;;;;1.89;68.67;98145.69;10464842;28;20045;-52
2020/12/26 22:52:44;;;;;;;6.20;2.80;;;;;;;1.76;69.01;98162.16;10464006;28;20400;-51
2020/12/26 22:57:45;;;;;;;6.53;3.03;;;;;;;1.74;68.88;98166.59;10463322;28;20049;-49
2020/12/26 23:02:47;;;;;;;6.90;3.17;;;;;;;1.71;68.67;98158.22;10463767;28;20048;-52
2020/12/26 23:07:49;;;;;;;8.75;3.45;;;;;;;1.72;68.93;98171.06;10464183;28;20114;-52
2020/12/26 23:12:51;;;;;;;8.00;2.80;;;;;;;1.76;69.23;98162.16;10463132;28;20052;-52
2020/12/26 23:17:53;;;;;;;6.78;3.40;;;;;;;1.80;69.14;98179.09;10463326;28;20099;-50
2020/12/26 23:22:55;;;;;;;10.13;3.13;;;;;;;1.83;68.49;98184.06;10464333;28;20461;-49
2020/12/26 23:27:57;;;;;;;8.38;4.18;;;;;;;1.83;68.32;98191.84;10463129;28;20136;-52
2020/12/26 23:32:58;;;;;;;8.32;3.20;;;;;;;1.83;69.13;98209.97;10463145;28;20061;-57
2020/12/26 23:38:01;;;;;;;8.45;4.20;;;;;;;1.62;68.77;98227.06;10464262;28;20052;-49